Time;durP1;ratioP1;P1;durP2;ratioP2;P2;SDS_P1;SDS_P2;PMS_P1;PMS_P2;Temp;Humidity;BMP_temperature;BMP_pressure;BME280_temperature;BME280_humidity;BME280_pressure;Samples;Min_cycle;Max_cycle;Signal;HPM_P1;HPM_P2
2022/07/22 00:02:09;;;;;;;14.30;6.03;;;;;;;;;;3349433;42;20362;-57
2022/07/22 00:04:35;;;;;;;14.75;6.13;;;;;;;;;;3353372;42;20088;-57
2022/07/22 00:07:01;;;;;;;14.07;6.30;;;;;;;;;;3348855;42;20637;-58
2022/07/22 00:09:27;;;;;;;14.82;6.10;;;;;;;;;;3354365;42;20614;-59
2022/07/22 00:11:53;;;;;;;14.03;6.77;;;;;;;;;;3340464;42;20111;-57
2022/07/22 00:14:19;;;;;;;17.52;7.30;;;;;;;;;;3352808;42;20136;-61
2022/07/22 00:16:45;;;;;;;16.83;6.90;;;;;;;;;;3350899;42;20096;-60
2022/07/22 00:19:11;;;;;;;13.77;7.20;;;;;;;;;;3351500;42;20555;-57
2022/07/22 00:21:36;;;;;;;15.00;6.97;;;;;;;;;;3342963;42;20104;-59
2022/07/22 00:24:03;;;;;;;16.63;7.45;;;;;;;;;;3354291;42;20494;-56
2022/07/22 00:26:29;;;;;;;21.35;7.78;;;;;;;;;;3349559;42;20591;-60
2022/07/22 00:28:55;;;;;;;17.73;8.38;;;;;;;;;;3353277;42;20215;-57
2022/07/22 00:31:21;;;;;;;15.70;7.60;;;;;;;;;;3353070;42;20092;-58
2022/07/22 00:33:47;;;;;;;19.05;7.88;;;;;;;;;;3352863;42;20597;-58
2022/07/22 00:36:12;;;;;;;17.40;8.27;;;;;;;;;;3352110;42;20602;-58
2022/07/22 00:38:38;;;;;;;15.35;7.88;;;;;;;;;;3350848;42;20547;-56
2022/07/22 00:41:04;;;;;;;15.60;7.90;;;;;;;;;;3353529;42;20567;-58
2022/07/22 00:43:59;;;;;;;14.68;7.55;;;;;;;;;;3355468;42;20093;-58
2022/07/22 00:46:25;;;;;;;16.40;6.60;;;;;;;;;;3354494;42;20498;-58
2022/07/22 00:48:51;;;;;;;13.32;6.53;;;;;;;;;;3351448;42;20212;-56
2022/07/22 00:51:17;;;;;;;13.30;6.10;;;;;;;;;;3351719;42;20093;-61
2022/07/22 00:53:44;;;;;;;11.13;5.60;;;;;;;;;;3352902;42;20092;-58
2022/07/22 00:56:10;;;;;;;12.80;5.57;;;;;;;;;;3346578;42;20100;-59
2022/07/22 00:58:36;;;;;;;13.27;5.90;;;;;;;;;;3346797;42;20091;-57
2022/07/22 01:01:03;;;;;;;13.60;5.83;;;;;;;;;;3352502;42;20158;-57
2022/07/22 01:03:28;;;;;;;11.35;5.75;;;;;;;;;;3350570;42;20100;-55
2022/07/22 01:05:54;;;;;;;11.60;5.80;;;;;;;;;;3350820;42;20103;-57
2022/07/22 01:08:20;;;;;;;14.10;5.90;;;;;;;;;;3352868;42;20124;-56
2022/07/22 01:10:46;;;;;;;12.63;5.33;;;;;;;;;;3350727;42;20676;-57
2022/07/22 01:13:12;;;;;;;12.52;5.88;;;;;;;;;;3357532;42;20175;-58
2022/07/22 01:15:38;;;;;;;13.18;6.28;;;;;;;;;;3349415;42;20093;-57
2022/07/22 01:18:04;;;;;;;15.95;6.03;;;;;;;;;;3354404;42;20085;-59
2022/07/22 01:20:31;;;;;;;16.07;5.80;;;;;;;;;;3355092;42;20705;-57
2022/07/22 01:22:57;;;;;;;12.35;5.63;;;;;;;;;;3354547;42;20094;-60
2022/07/22 01:25:23;;;;;;;12.43;5.40;;;;;;;;;;3355246;42;20092;-58
2022/07/22 01:27:49;;;;;;;12.82;5.22;;;;;;;;;;3353298;42;20144;-58
2022/07/22 01:30:15;;;;;;;11.20;5.43;;;;;;;;;;3352028;42;20100;-57
2022/07/22 01:32:41;;;;;;;12.48;5.03;;;;;;;;;;3351905;42;20563;-58
2022/07/22 01:35:07;;;;;;;10.45;5.00;;;;;;;;;;3354139;42;20101;-57
2022/07/22 01:37:33;;;;;;;9.80;4.70;;;;;;;;;;3352063;42;20095;-57
2022/07/22 01:39:59;;;;;;;12.13;5.00;;;;;;;;;;3352229;42;20097;-58
2022/07/22 01:42:25;;;;;;;9.68;4.43;;;;;;;;;;3354103;42;20160;-58
2022/07/22 01:44:51;;;;;;;9.35;4.20;;;;;;;;;;3345870;42;20139;-54
2022/07/22 01:47:17;;;;;;;13.02;4.80;;;;;;;;;;3353593;42;20092;-57
2022/07/22 01:49:43;;;;;;;12.53;4.17;;;;;;;;;;3358940;42;20087;-57
2022/07/22 01:52:09;;;;;;;8.20;3.80;;;;;;;;;;3345254;42;20833;-58
2022/07/22 01:54:35;;;;;;;7.97;3.95;;;;;;;;;;3354763;42;20184;-57
2022/07/22 01:57:01;;;;;;;9.10;3.67;;;;;;;;;;3349734;42;20115;-58
2022/07/22 01:59:27;;;;;;;10.02;3.55;;;;;;;;;;3346294;42;20096;-57
2022/07/22 02:01:54;;;;;;;9.00;3.97;;;;;;;;;;3358847;42;20131;-57
2022/07/22 02:04:19;;;;;;;8.18;3.72;;;;;;;;;;3353068;42;20081;-57
2022/07/22 02:06:45;;;;;;;8.48;3.85;;;;;;;;;;3356675;42;20076;-58
2022/07/22 02:09:13;;;;;;;8.00;3.83;;;;;;;;;;3355955;42;20140;-57
2022/07/22 02:11:39;;;;;;;7.50;3.70;;;;;;;;;;3354259;42;20170;-59
2022/07/22 02:14:05;;;;;;;9.57;3.65;;;;;;;;;;3357271;42;20154;-57
2022/07/22 02:16:31;;;;;;;9.20;3.63;;;;;;;;;;3353679;42;20662;-58
2022/07/22 02:18:57;;;;;;;9.07;3.80;;;;;;;;;;3362088;42;20088;-60
2022/07/22 02:21:23;;;;;;;7.97;3.70;;;;;;;;;;3349523;42;20104;-58
2022/07/22 02:23:49;;;;;;;9.67;3.70;;;;;;;;;;3344972;42;20108;-58
2022/07/22 02:26:16;;;;;;;8.68;3.90;;;;;;;;;;3349643;42;20639;-69
2022/07/22 02:28:42;;;;;;;7.43;3.65;;;;;;;;;;3344542;42;20089;-58
2022/07/22 02:31:08;;;;;;;9.25;3.70;;;;;;;;;;3355580;42;20098;-58
2022/07/22 02:33:34;;;;;;;10.20;3.85;;;;;;;;;;3353471;42;20085;-60
2022/07/22 02:36:00;;;;;;;9.23;3.83;;;;;;;;;;3351240;42;20100;-60
2022/07/22 02:38:26;;;;;;;8.48;3.70;;;;;;;;;;3351380;42;20690;-58
2022/07/22 02:40:53;;;;;;;10.23;3.65;;;;;;;;;;3355629;42;20081;-58
2022/07/22 02:43:19;;;;;;;9.70;3.80;;;;;;;;;;3353710;42;20092;-58
2022/07/22 02:45:45;;;;;;;8.25;3.72;;;;;;;;;;3361178;42;20096;-63
2022/07/22 02:48:12;;;;;;;8.33;4.07;;;;;;;;;;3356322;42;20085;-58
2022/07/22 02:50:38;;;;;;;8.23;4.20;;;;;;;;;;3360303;42;20127;-57
2022/07/22 02:53:04;;;;;;;8.63;3.90;;;;;;;;;;3357424;42;20160;-59
2022/07/22 02:55:31;;;;;;;8.98;3.80;;;;;;;;;;3346226;42;20107;-57
2022/07/22 02:57:57;;;;;;;7.50;3.97;;;;;;;;;;3358303;42;20101;-59
2022/07/22 03:00:23;;;;;;;9.80;4.03;;;;;;;;;;3356546;42;20158;-58
2022/07/22 03:02:49;;;;;;;9.13;4.22;;;;;;;;;;3354634;42;20096;-58
2022/07/22 03:05:15;;;;;;;8.98;4.22;;;;;;;;;;3354538;42;20076;-58
2022/07/22 03:07:41;;;;;;;8.32;4.13;;;;;;;;;;3354590;42;20173;-57
2022/07/22 03:10:08;;;;;;;7.60;3.60;;;;;;;;;;3353008;42;20136;-58
2022/07/22 03:12:34;;;;;;;7.80;3.92;;;;;;;;;;3357674;42;20088;-58
2022/07/22 03:15:00;;;;;;;8.48;3.85;;;;;;;;;;3358496;42;20101;-58
2022/07/22 03:17:26;;;;;;;7.38;3.65;;;;;;;;;;3352746;42;20081;-58
2022/07/22 03:19:52;;;;;;;6.47;3.40;;;;;;;;;;3355102;42;20539;-58
2022/07/22 03:22:18;;;;;;;7.18;3.50;;;;;;;;;;3352389;42;20166;-58
2022/07/22 03:24:44;;;;;;;6.28;3.30;;;;;;;;;;3358037;42;20092;-58
2022/07/22 03:27:09;;;;;;;10.30;3.33;;;;;;;;;;3343848;42;20132;-58
2022/07/22 03:29:35;;;;;;;6.73;3.47;;;;;;;;;;3354414;42;20300;-58
2022/07/22 03:32:01;;;;;;;8.63;3.33;;;;;;;;;;3351600;42;20132;-58
2022/07/22 03:34:27;;;;;;;7.55;3.10;;;;;;;;;;3351038;42;20089;-57
2022/07/22 03:36:53;;;;;;;6.97;3.37;;;;;;;;;;3357662;42;20143;-57
2022/07/22 03:39:19;;;;;;;11.38;3.20;;;;;;;;;;3351641;42;20151;-58
2022/07/22 03:41:45;;;;;;;11.02;3.42;;;;;;;;;;3353796;42;20095;-57
2022/07/22 03:44:11;;;;;;;7.05;3.28;;;;;;;;;;3350735;42;20104;-57
2022/07/22 03:46:37;;;;;;;9.57;3.30;;;;;;;;;;3353559;42;20076;-58
2022/07/22 03:49:03;;;;;;;8.57;3.60;;;;;;;;;;3351259;42;20207;-57
2022/07/22 03:51:29;;;;;;;7.25;3.50;;;;;;;;;;3357169;42;20135;-56
2022/07/22 03:53:55;;;;;;;6.88;3.28;;;;;;;;;;3351662;42;20562;-57
2022/07/22 03:56:21;;;;;;;9.63;3.53;;;;;;;;;;3346890;42;20203;-55
2022/07/22 03:58:47;;;;;;;7.95;3.30;;;;;;;;;;3353487;42;20076;-57
2022/07/22 04:01:12;;;;;;;8.98;3.67;;;;;;;;;;3357528;42;20684;-58
2022/07/22 04:03:38;;;;;;;8.97;3.87;;;;;;;;;;3357295;42;20088;-56
2022/07/22 04:06:06;;;;;;;9.77;3.65;;;;;;;;;;3354086;42;20149;-58
2022/07/22 04:08:32;;;;;;;8.48;3.40;;;;;;;;;;3348918;42;20103;-58
2022/07/22 04:10:58;;;;;;;7.15;2.88;;;;;;;;;;3355755;42;20522;-56
2022/07/22 04:13:24;;;;;;;7.40;2.80;;;;;;;;;;3353387;42;20561;-56
2022/07/22 04:15:50;;;;;;;7.03;3.08;;;;;;;;;;3352390;42;20653;-58
2022/07/22 04:18:17;;;;;;;7.03;2.67;;;;;;;;;;3350957;42;20092;-58
2022/07/22 04:20:43;;;;;;;7.18;3.08;;;;;;;;;;3349881;42;20502;-58
2022/07/22 04:23:09;;;;;;;8.70;2.63;;;;;;;;;;3348531;42;20112;-59
2022/07/22 04:25:35;;;;;;;7.68;2.80;;;;;;;;;;3355791;42;20187;-57
2022/07/22 04:28:01;;;;;;;5.50;2.40;;;;;;;;;;3350205;42;20081;-56
2022/07/22 04:30:27;;;;;;;5.30;2.50;;;;;;;;;;3360848;42;20573;-58
2022/07/22 04:32:53;;;;;;;8.20;2.87;;;;;;;;;;3362276;42;20088;-57
2022/07/22 04:35:19;;;;;;;7.68;2.88;;;;;;;;;;3361400;42;20142;-60
2022/07/22 04:37:45;;;;;;;5.75;2.60;;;;;;;;;;3351239;42;20080;-57
2022/07/22 04:40:11;;;;;;;7.53;2.47;;;;;;;;;;3356826;42;20088;-56
2022/07/22 04:42:37;;;;;;;5.50;2.50;;;;;;;;;;3358824;42;20100;-59
2022/07/22 04:45:04;;;;;;;7.10;2.75;;;;;;;;;;3350678;42;20081;-58
2022/07/22 04:47:30;;;;;;;6.68;2.97;;;;;;;;;;3357434;42;20138;-59
2022/07/22 04:49:56;;;;;;;6.07;2.55;;;;;;;;;;3351374;42;20085;-55
2022/07/22 04:52:22;;;;;;;6.50;2.67;;;;;;;;;;3352977;42;20543;-58
2022/07/22 04:54:47;;;;;;;6.63;2.65;;;;;;;;;;3344739;42;20164;-58
2022/07/22 04:57:13;;;;;;;12.25;2.78;;;;;;;;;;3346586;42;20111;-58
2022/07/22 04:59:39;;;;;;;10.07;2.70;;;;;;;;;;3355771;42;20099;-58
2022/07/22 05:02:06;;;;;;;8.77;2.57;;;;;;;;;;3353937;42;20111;-57
2022/07/22 05:04:32;;;;;;;7.65;2.53;;;;;;;;;;3348588;42;20127;-58
2022/07/22 05:06:58;;;;;;;6.47;2.38;;;;;;;;;;3353990;42;20136;-58
2022/07/22 05:09:24;;;;;;;5.78;2.90;;;;;;;;;;3355253;42;20085;-57
2022/07/22 05:11:50;;;;;;;7.67;3.43;;;;;;;;;;3357384;42;20085;-59
2022/07/22 05:14:16;;;;;;;7.50;2.67;;;;;;;;;;3354099;42;20104;-58
2022/07/22 05:16:42;;;;;;;8.18;2.78;;;;;;;;;;3353424;42;20107;-58
2022/07/22 05:19:08;;;;;;;14.90;2.80;;;;;;;;;;3358499;42;20081;-58
2022/07/22 05:21:34;;;;;;;5.97;2.67;;;;;;;;;;3354439;42;20092;-58
2022/07/22 05:24:00;;;;;;;9.27;2.97;;;;;;;;;;3351542;42;20085;-57
2022/07/22 05:26:29;;;;;;;6.22;2.50;;;;;;;;;;3350443;42;20479;-58
2022/07/22 05:28:55;;;;;;;5.80;2.30;;;;;;;;;;3353718;42;20115;-56
2022/07/22 05:31:21;;;;;;;6.50;2.30;;;;;;;;;;3353438;42;20084;-56
2022/07/22 05:33:47;;;;;;;7.30;2.50;;;;;;;;;;3355009;42;20972;-57
2022/07/22 05:36:12;;;;;;;6.35;2.55;;;;;;;;;;3355317;42;20166;-56
2022/07/22 05:38:38;;;;;;;6.50;2.40;;;;;;;;;;3345133;42;20092;-56
2022/07/22 05:41:04;;;;;;;9.70;2.53;;;;;;;;;;3353623;42;20162;-57
2022/07/22 05:43:30;;;;;;;5.20;2.35;;;;;;;;;;3356336;42;20107;-58
2022/07/22 05:45:56;;;;;;;7.65;2.65;;;;;;;;;;3349452;42;20096;-55
2022/07/22 05:48:22;;;;;;;8.20;2.40;;;;;;;;;;3355190;42;20088;-57
2022/07/22 05:50:48;;;;;;;6.53;2.23;;;;;;;;;;3345272;42;20774;-55
2022/07/22 05:53:14;;;;;;;6.50;2.15;;;;;;;;;;3351957;42;20140;-58
2022/07/22 05:55:40;;;;;;;8.90;2.30;;;;;;;;;;3352848;42;20089;-54
2022/07/22 05:58:06;;;;;;;7.20;3.10;;;;;;;;;;3354905;42;20169;-56
2022/07/22 06:00:32;;;;;;;5.70;2.37;;;;;;;;;;3354495;42;20097;-58
2022/07/22 06:02:58;;;;;;;7.05;2.53;;;;;;;;;;3352734;42;20084;-58
2022/07/22 06:05:24;;;;;;;6.82;2.45;;;;;;;;;;3345496;42;20084;-56
2022/07/22 06:07:50;;;;;;;11.50;2.70;;;;;;;;;;3354797;42;20506;-56
2022/07/22 06:10:16;;;;;;;7.60;2.95;;;;;;;;;;3356504;42;20096;-58
2022/07/22 06:12:42;;;;;;;7.00;2.80;;;;;;;;;;3358345;42;20557;-57
2022/07/22 06:15:08;;;;;;;6.35;2.70;;;;;;;;;;3357720;42;20136;-58
2022/07/22 06:17:34;;;;;;;6.13;2.70;;;;;;;;;;3352486;42;20100;-56
2022/07/22 06:20:00;;;;;;;6.00;2.70;;;;;;;;;;3353999;42;20076;-56
2022/07/22 06:22:26;;;;;;;6.75;2.90;;;;;;;;;;3354617;42;20432;-56
2022/07/22 06:24:53;;;;;;;7.15;2.70;;;;;;;;;;3351497;42;20104;-57
2022/07/22 06:27:19;;;;;;;8.98;2.78;;;;;;;;;;3353947;42;20089;-58
2022/07/22 06:29:45;;;;;;;8.53;2.90;;;;;;;;;;3354635;42;20100;-55
2022/07/22 06:32:10;;;;;;;7.32;2.72;;;;;;;;;;3353969;42;20170;-55
2022/07/22 06:34:36;;;;;;;7.45;2.85;;;;;;;;;;3357270;42;20084;-56
2022/07/22 06:37:03;;;;;;;6.50;2.87;;;;;;;;;;3352578;42;20101;-55
2022/07/22 06:39:29;;;;;;;6.63;2.80;;;;;;;;;;3357469;42;20292;-56
2022/07/22 06:41:55;;;;;;;9.30;2.85;;;;;;;;;;3358297;42;20108;-56
2022/07/22 06:44:21;;;;;;;6.82;2.70;;;;;;;;;;3357784;42;20076;-57
2022/07/22 06:46:46;;;;;;;7.30;2.60;;;;;;;;;;3353208;42;20092;-58
2022/07/22 06:49:12;;;;;;;6.68;2.90;;;;;;;;;;3352028;42;20081;-59
2022/07/22 06:51:38;;;;;;;9.80;2.83;;;;;;;;;;3354325;42;20125;-57
2022/07/22 06:54:04;;;;;;;7.45;2.95;;;;;;;;;;3355285;42;20163;-56
2022/07/22 06:56:30;;;;;;;6.63;2.70;;;;;;;;;;3356918;42;20112;-57
2022/07/22 06:58:56;;;;;;;7.90;2.92;;;;;;;;;;3357770;42;20581;-56
2022/07/22 07:01:22;;;;;;;6.10;3.00;;;;;;;;;;3352802;42;20092;-57
2022/07/22 07:03:48;;;;;;;7.75;3.00;;;;;;;;;;3352520;42;20084;-56
2022/07/22 07:06:15;;;;;;;5.80;2.63;;;;;;;;;;3354161;42;20565;-57
2022/07/22 07:08:41;;;;;;;6.90;2.72;;;;;;;;;;3351395;42;20621;-57
2022/07/22 07:11:07;;;;;;;7.68;3.50;;;;;;;;;;3353781;42;20575;-62
2022/07/22 07:13:33;;;;;;;8.00;3.50;;;;;;;;;;3348845;42;20123;-58
2022/07/22 07:15:59;;;;;;;10.38;3.35;;;;;;;;;;3340140;42;20123;-57
2022/07/22 07:18:25;;;;;;;7.97;3.50;;;;;;;;;;3353046;42;20121;-59
2022/07/22 07:20:51;;;;;;;6.60;3.40;;;;;;;;;;3354186;42;20194;-57
2022/07/22 07:23:17;;;;;;;9.35;3.67;;;;;;;;;;3350720;42;20577;-53
2022/07/22 07:25:43;;;;;;;9.75;3.88;;;;;;;;;;3355511;42;20566;-57
2022/07/22 07:28:09;;;;;;;9.67;3.60;;;;;;;;;;3352284;42;20135;-57
2022/07/22 07:30:35;;;;;;;9.80;3.60;;;;;;;;;;3351566;42;20099;-57
2022/07/22 07:33:01;;;;;;;8.02;3.67;;;;;;;;;;3353965;42;20111;-58
2022/07/22 07:35:27;;;;;;;8.23;4.28;;;;;;;;;;3353317;42;20100;-57
2022/07/22 07:37:53;;;;;;;9.00;3.80;;;;;;;;;;3357751;42;20301;-58
2022/07/22 07:40:19;;;;;;;8.18;2.90;;;;;;;;;;3352974;42;20156;-58
2022/07/22 07:42:45;;;;;;;8.05;3.22;;;;;;;;;;3352072;42;20080;-59
2022/07/22 07:45:12;;;;;;;8.18;3.22;;;;;;;;;;3355096;42;20131;-57
2022/07/22 07:47:37;;;;;;;8.00;3.00;;;;;;;;;;3354936;42;20669;-56
2022/07/22 07:50:07;;;;;;;6.18;2.63;;;;;;;;;;3352406;42;20096;-58
2022/07/22 07:52:42;;;;;;;9.05;2.80;;;;;;;;;;3352150;42;20089;-57
2022/07/22 07:55:09;;;;;;;5.90;3.05;;;;;;;;;;3351986;42;20096;-57
2022/07/22 07:57:36;;;;;;;6.75;3.00;;;;;;;;;;3357392;42;20092;-57
2022/07/22 08:00:04;;;;;;;8.23;3.20;;;;;;;;;;3348345;42;20616;-57
2022/07/22 08:02:30;;;;;;;6.70;3.25;;;;;;;;;;3348540;42;20498;-58
2022/07/22 08:04:56;;;;;;;6.00;2.47;;;;;;;;;;3352257;42;20586;-57
2022/07/22 08:07:22;;;;;;;5.55;2.60;;;;;;;;;;3355405;42;20433;-56
2022/07/22 08:09:48;;;;;;;6.50;2.50;;;;;;;;;;3351422;42;20088;-59
2022/07/22 08:12:14;;;;;;;5.43;2.42;;;;;;;;;;3351722;42;20088;-57
2022/07/22 08:14:40;;;;;;;6.45;2.40;;;;;;;;;;3348184;42;20100;-58
2022/07/22 08:17:05;;;;;;;7.33;2.40;;;;;;;;;;3349177;42;20192;-57
2022/07/22 08:19:31;;;;;;;6.68;2.30;;;;;;;;;;3349606;42;20095;-57
2022/07/22 08:21:57;;;;;;;7.05;2.25;;;;;;;;;;3355956;42;20155;-58
2022/07/22 08:24:23;;;;;;;5.60;2.20;;;;;;;;;;3344896;42;20181;-57
2022/07/22 08:26:49;;;;;;;6.97;2.10;;;;;;;;;;3351377;42;20166;-57
2022/07/22 08:29:15;;;;;;;8.05;2.10;;;;;;;;;;3352845;42;20084;-56
2022/07/22 08:31:41;;;;;;;5.35;2.10;;;;;;;;;;3356548;42;20099;-58
2022/07/22 08:34:07;;;;;;;6.33;2.60;;;;;;;;;;3353874;42;20114;-57
2022/07/22 08:36:33;;;;;;;6.22;2.50;;;;;;;;;;3352033;42;20111;-59
2022/07/22 08:38:59;;;;;;;7.90;2.40;;;;;;;;;;3354218;42;20076;-58
2022/07/22 08:41:25;;;;;;;6.87;2.40;;;;;;;;;;3357404;42;20110;-57
2022/07/22 08:43:51;;;;;;;8.83;2.50;;;;;;;;;;3352263;42;20292;-58
2022/07/22 08:46:17;;;;;;;8.32;2.75;;;;;;;;;;3346730;42;20076;-57
2022/07/22 08:48:43;;;;;;;7.40;2.70;;;;;;;;;;3352148;42;20102;-55
2022/07/22 08:51:09;;;;;;;6.95;2.70;;;;;;;;;;3343993;42;20113;-57
2022/07/22 08:53:35;;;;;;;6.43;2.27;;;;;;;;;;3352489;42;20619;-57
2022/07/22 08:56:01;;;;;;;8.50;2.33;;;;;;;;;;3352372;42;20202;-58
2022/07/22 08:58:27;;;;;;;6.53;2.40;;;;;;;;;;3353369;42;20126;-57
2022/07/22 09:01:07;;;;;;;9.45;2.60;;;;;;;;;;3352232;42;20088;-55
2022/07/22 09:03:33;;;;;;;7.43;2.50;;;;;;;;;;3343290;42;20100;-57
2022/07/22 09:05:59;;;;;;;5.30;2.10;;;;;;;;;;3354219;42;20119;-58
2022/07/22 09:08:25;;;;;;;6.10;2.20;;;;;;;;;;3345147;42;20138;-57
2022/07/22 09:10:51;;;;;;;6.57;2.40;;;;;;;;;;3352698;42;20127;-55
2022/07/22 09:13:18;;;;;;;5.63;2.30;;;;;;;;;;3350918;42;20081;-52
2022/07/22 09:15:49;;;;;;;7.65;2.40;;;;;;;;;;3354008;42;20099;-58
2022/07/22 09:18:15;;;;;;;6.63;2.13;;;;;;;;;;3347570;42;20104;-58
2022/07/22 09:20:43;;;;;;;6.72;2.42;;;;;;;;;;3356454;42;20159;-57
2022/07/22 09:23:22;;;;;;;6.33;2.00;;;;;;;;;;3352284;42;20556;-57
2022/07/22 09:25:48;;;;;;;5.00;1.92;;;;;;;;;;3351105;42;20111;-57
2022/07/22 09:28:17;;;;;;;5.82;2.10;;;;;;;;;;3350520;42;20101;-58
2022/07/22 09:30:50;;;;;;;6.00;2.20;;;;;;;;;;3357228;42;20158;-58
2022/07/22 09:33:16;;;;;;;6.60;2.10;;;;;;;;;;3351971;42;20092;-56
2022/07/22 09:35:43;;;;;;;6.60;2.10;;;;;;;;;;3354595;42;20195;-58
2022/07/22 09:38:10;;;;;;;7.57;2.30;;;;;;;;;;3353326;42;20119;-58
2022/07/22 09:40:43;;;;;;;4.78;2.20;;;;;;;;;;3357497;42;20170;-58
2022/07/22 09:43:13;;;;;;;5.80;1.90;;;;;;;;;;3352363;42;20633;-58
2022/07/22 09:45:57;;;;;;;8.07;2.28;;;;;;;;;;3359064;42;20080;-57
2022/07/22 09:48:23;;;;;;;6.83;2.10;;;;;;;;;;3346111;42;20107;-58
2022/07/22 09:50:49;;;;;;;5.55;2.20;;;;;;;;;;3359204;42;20554;-58
2022/07/22 09:53:18;;;;;;;6.70;2.25;;;;;;;;;;3360558;42;20115;-57
2022/07/22 09:55:44;;;;;;;8.75;2.30;;;;;;;;;;3356982;42;20089;-58
2022/07/22 09:58:11;;;;;;;6.72;2.40;;;;;;;;;;3354479;42;20115;-58
2022/07/22 10:00:37;;;;;;;6.47;2.30;;;;;;;;;;3353105;42;20092;-57
2022/07/22 10:03:05;;;;;;;7.13;2.15;;;;;;;;;;3349428;42;20187;-55
2022/07/22 10:05:36;;;;;;;6.65;2.00;;;;;;;;;;3352222;42;20182;-57
2022/07/22 10:08:03;;;;;;;5.60;2.10;;;;;;;;;;3352292;42;20158;-60
2022/07/22 10:10:30;;;;;;;6.70;2.10;;;;;;;;;;3352107;42;20084;-57
2022/07/22 10:12:57;;;;;;;5.00;1.87;;;;;;;;;;3345152;42;20099;-57
2022/07/22 10:15:24;;;;;;;7.53;1.90;;;;;;;;;;3353451;42;20184;-57
2022/07/22 10:17:52;;;;;;;6.45;2.00;;;;;;;;;;3353130;42;20151;-55
2022/07/22 10:20:19;;;;;;;6.65;2.47;;;;;;;;;;3345792;42;20546;-57
2022/07/22 10:22:49;;;;;;;8.32;2.30;;;;;;;;;;3354662;42;20104;-58
2022/07/22 10:25:18;;;;;;;6.30;2.20;;;;;;;;;;3358209;42;20574;-57
2022/07/22 10:27:52;;;;;;;8.27;2.67;;;;;;;;;;3349772;42;20151;-59
2022/07/22 10:30:20;;;;;;;4.95;2.10;;;;;;;;;;3357435;42;20622;-61
2022/07/22 10:33:21;;;;;;;8.27;2.33;;;;;;;;;;3359852;42;20092;-56
2022/07/22 10:35:58;;;;;;;11.05;2.30;;;;;;;;;;3353564;42;20523;-58
2022/07/22 10:38:24;;;;;;;5.43;1.97;;;;;;;;;;3361716;42;20159;-58
2022/07/22 10:40:51;;;;;;;5.53;2.25;;;;;;;;;;3360596;42;20872;-60
2022/07/22 10:43:27;;;;;;;7.18;2.65;;;;;;;;;;3359495;42;20227;-57
2022/07/22 10:46:00;;;;;;;7.20;2.60;;;;;;;;;;3360037;42;20106;-57
2022/07/22 10:48:38;;;;;;;6.65;2.45;;;;;;;;;;3362221;42;20119;-59
2022/07/22 10:51:11;;;;;;;6.53;2.40;;;;;;;;;;3361225;42;20533;-58
2022/07/22 10:53:46;;;;;;;6.97;2.30;;;;;;;;;;3360257;42;20475;-55
2022/07/22 10:56:29;;;;;;;6.38;2.50;;;;;;;;;;3358537;42;20112;-59
2022/07/22 10:58:55;;;;;;;6.70;2.63;;;;;;;;;;3351550;42;20092;-59
2022/07/22 11:01:27;;;;;;;6.80;2.40;;;;;;;;;;3360845;42;20148;-58
2022/07/22 11:03:53;;;;;;;8.10;2.53;;;;;;;;;;3359932;42;20288;-58
2022/07/22 11:06:20;;;;;;;5.32;2.30;;;;;;;;;;3359659;42;20181;-58
2022/07/22 11:08:49;;;;;;;8.57;2.80;;;;;;;;;;3357532;42;20578;-57
2022/07/22 11:11:16;;;;;;;8.73;2.53;;;;;;;;;;3353495;42;20106;-58
2022/07/22 11:13:44;;;;;;;5.60;2.30;;;;;;;;;;3352093;42;20194;-59
2022/07/22 11:16:21;;;;;;;6.83;2.43;;;;;;;;;;3353038;42;20558;-58
2022/07/22 11:18:47;;;;;;;5.80;2.30;;;;;;;;;;3355661;42;20093;-57
2022/07/22 11:21:16;;;;;;;10.13;2.30;;;;;;;;;;3362490;42;20114;-60
2022/07/22 11:23:42;;;;;;;6.45;2.47;;;;;;;;;;3359974;42;20808;-60
2022/07/22 11:26:09;;;;;;;6.15;2.30;;;;;;;;;;3351657;42;20658;-59
2022/07/22 11:28:43;;;;;;;5.70;2.40;;;;;;;;;;3344745;42;20103;-59
2022/07/22 11:31:13;;;;;;;6.72;2.20;;;;;;;;;;3362150;42;20533;-62
2022/07/22 11:33:39;;;;;;;7.93;2.33;;;;;;;;;;3359761;42;20102;-58
2022/07/22 11:36:07;;;;;;;7.60;2.28;;;;;;;;;;3360426;42;20100;-59
2022/07/22 11:38:46;;;;;;;6.93;2.40;;;;;;;;;;3360726;42;20130;-58
2022/07/22 11:41:12;;;;;;;8.00;2.40;;;;;;;;;;3361368;42;20602;-56
2022/07/22 11:43:49;;;;;;;8.85;2.47;;;;;;;;;;3361156;42;20098;-59
2022/07/22 11:46:15;;;;;;;8.88;2.63;;;;;;;;;;3344646;42;20147;-56
2022/07/22 11:48:42;;;;;;;6.13;2.40;;;;;;;;;;3358584;42;20147;-59
2022/07/22 11:51:10;;;;;;;9.03;3.17;;;;;;;;;;3362537;42;20107;-58
2022/07/22 11:53:37;;;;;;;5.53;2.65;;;;;;;;;;3362028;42;20091;-59
2022/07/22 11:56:04;;;;;;;7.55;2.55;;;;;;;;;;3357336;42;20124;-57
2022/07/22 11:58:37;;;;;;;7.60;2.60;;;;;;;;;;3359804;42;20152;-59
2022/07/22 12:01:07;;;;;;;7.75;2.40;;;;;;;;;;3360712;42;20560;-59
2022/07/22 12:03:37;;;;;;;8.50;2.60;;;;;;;;;;3349303;42;20088;-60
2022/07/22 12:06:04;;;;;;;9.88;2.72;;;;;;;;;;3350024;42;20100;-59
2022/07/22 12:08:30;;;;;;;6.55;2.40;;;;;;;;;;3352729;42;20689;-58
2022/07/22 12:10:57;;;;;;;9.30;2.58;;;;;;;;;;3345298;42;20126;-58
2022/07/22 12:13:30;;;;;;;6.63;2.80;;;;;;;;;;3351713;42;20091;-60
2022/07/22 12:15:57;;;;;;;8.80;2.40;;;;;;;;;;3360537;42;20112;-58
2022/07/22 12:18:24;;;;;;;7.65;2.40;;;;;;;;;;3351458;42;20111;-57
2022/07/22 12:20:51;;;;;;;8.70;2.30;;;;;;;;;;3361009;42;20087;-58
2022/07/22 12:23:17;;;;;;;7.70;2.40;;;;;;;;;;3353735;42;20127;-57
2022/07/22 12:25:57;;;;;;;5.93;2.20;;;;;;;;;;3348545;42;20111;-58
2022/07/22 12:28:23;;;;;;;5.00;2.20;;;;;;;;;;3360281;42;20574;-58
2022/07/22 12:30:50;;;;;;;8.43;2.40;;;;;;;;;;3360737;42;20159;-60
2022/07/22 12:33:16;;;;;;;7.05;2.50;;;;;;;;;;3362054;42;20829;-60
2022/07/22 12:35:43;;;;;;;6.13;2.20;;;;;;;;;;3361984;42;20088;-60
2022/07/22 12:38:09;;;;;;;6.60;2.30;;;;;;;;;;3352481;42;20088;-58
2022/07/22 12:40:35;;;;;;;6.00;2.03;;;;;;;;;;3360902;42;20102;-56
2022/07/22 12:43:05;;;;;;;6.63;2.30;;;;;;;;;;3362049;42;20099;-55
2022/07/22 12:45:36;;;;;;;7.53;2.63;;;;;;;;;;3352746;42;20510;-59
2022/07/22 12:48:03;;;;;;;6.75;2.30;;;;;;;;;;3362458;42;20092;-59
2022/07/22 12:50:35;;;;;;;7.32;2.95;;;;;;;;;;3362830;42;20629;-58
2022/07/22 12:53:06;;;;;;;8.87;2.20;;;;;;;;;;3361677;42;20092;-60
2022/07/22 12:55:33;;;;;;;6.03;2.25;;;;;;;;;;3360579;42;20092;-60
2022/07/22 12:57:59;;;;;;;5.72;2.20;;;;;;;;;;3352839;42;20144;-61
2022/07/22 13:00:28;;;;;;;6.07;2.00;;;;;;;;;;3361576;42;20165;-65
2022/07/22 13:02:55;;;;;;;5.43;2.30;;;;;;;;;;3353721;42;20226;-61
2022/07/22 13:05:21;;;;;;;6.23;2.10;;;;;;;;;;3361883;42;20510;-58
2022/07/22 13:07:47;;;;;;;5.60;2.20;;;;;;;;;;3345836;42;20080;-61
2022/07/22 13:10:14;;;;;;;5.85;2.47;;;;;;;;;;3354205;42;20166;-59
2022/07/22 13:12:41;;;;;;;6.03;2.15;;;;;;;;;;3355641;42;20139;-60
2022/07/22 13:15:08;;;;;;;8.18;2.33;;;;;;;;;;3362626;42;20110;-61
2022/07/22 13:17:34;;;;;;;7.30;2.20;;;;;;;;;;3363783;42;20134;-65
2022/07/22 13:20:01;;;;;;;6.15;2.15;;;;;;;;;;3363567;42;20541;-62
2022/07/22 13:22:27;;;;;;;5.53;1.90;;;;;;;;;;3364260;42;20100;-64
2022/07/22 13:24:52;;;;;;;6.00;2.30;;;;;;;;;;3364903;42;20174;-61
2022/07/22 13:27:18;;;;;;;7.47;2.10;;;;;;;;;;3363771;42;20096;-59
2022/07/22 13:29:44;;;;;;;5.75;2.10;;;;;;;;;;3365529;42;20088;-60
2022/07/22 13:32:10;;;;;;;5.18;2.17;;;;;;;;;;3363130;42;20727;-57
2022/07/22 13:34:36;;;;;;;9.73;2.43;;;;;;;;;;3355823;42;20142;-58
2022/07/22 13:37:02;;;;;;;5.10;2.10;;;;;;;;;;3362253;42;20315;-59
2022/07/22 13:39:28;;;;;;;6.82;2.35;;;;;;;;;;3363352;42;20210;-62
2022/07/22 13:41:54;;;;;;;6.53;2.30;;;;;;;;;;3363717;42;20546;-60
2022/07/22 13:44:20;;;;;;;7.18;2.30;;;;;;;;;;3362857;42;20098;-62
2022/07/22 13:46:46;;;;;;;5.30;2.10;;;;;;;;;;3363603;42;20092;-60
2022/07/22 13:49:12;;;;;;;7.22;2.60;;;;;;;;;;3364127;42;20111;-60
2022/07/22 13:51:38;;;;;;;7.32;2.13;;;;;;;;;;3363522;42;20139;-60
2022/07/22 13:54:07;;;;;;;7.93;2.35;;;;;;;;;;3355631;42;20578;-60
2022/07/22 13:56:33;;;;;;;6.27;2.30;;;;;;;;;;3357735;42;20596;-60
2022/07/22 13:58:59;;;;;;;8.27;2.53;;;;;;;;;;3344438;42;20214;-59
2022/07/22 14:01:25;;;;;;;7.35;2.45;;;;;;;;;;3357051;42;20562;-58
2022/07/22 14:03:51;;;;;;;6.35;2.33;;;;;;;;;;3342071;42;20241;-59
2022/07/22 14:06:17;;;;;;;7.23;2.20;;;;;;;;;;3354801;42;20146;-65
2022/07/22 14:08:43;;;;;;;6.82;2.30;;;;;;;;;;3355953;42;20084;-60
2022/07/22 14:11:09;;;;;;;6.20;2.40;;;;;;;;;;3354803;42;20103;-59
2022/07/22 14:13:35;;;;;;;9.45;3.47;;;;;;;;;;3355206;42;20092;-60
2022/07/22 14:16:33;;;;;;;5.93;2.50;;;;;;;;;;3353079;42;20140;-60
2022/07/22 14:18:47;;;;;;;9.00;2.40;;;;;;;;;;3345675;42;20176;-60
2022/07/22 14:21:13;;;;;;;5.47;2.47;;;;;;;;;;3351977;42;20097;-58
2022/07/22 14:23:39;;;;;;;6.50;2.60;;;;;;;;;;3354469;42;20202;-57
2022/07/22 14:26:05;;;;;;;8.90;2.72;;;;;;;;;;3363000;42;20102;-59
2022/07/22 14:28:31;;;;;;;6.73;2.67;;;;;;;;;;3360527;42;20640;-58
2022/07/22 14:30:57;;;;;;;6.10;2.70;;;;;;;;;;3349627;42;20591;-57
2022/07/22 14:33:23;;;;;;;8.23;3.00;;;;;;;;;;3347212;42;20080;-58
2022/07/22 14:35:49;;;;;;;6.88;2.80;;;;;;;;;;3356041;42;20501;-58
2022/07/22 14:38:15;;;;;;;7.37;3.00;;;;;;;;;;3357252;42;20551;-58
2022/07/22 14:40:41;;;;;;;7.68;3.25;;;;;;;;;;3357536;42;20102;-58